Time;durP1;ratioP1;P1;durP2;ratioP2;P2;SDS_P1;SDS_P2;PMS_P1;PMS_P2;Temp;Humidity;BMP_temperature;BMP_pressure;BME280_temperature;BME280_humidity;BME280_pressure;Samples;Min_cycle;Max_cycle;Signal;HPM_P1;HPM_P2
2022/10/22 00:00:39;;;;;;;15.30;12.70;;;;;;;8.64;83.87;99174.48;420634;1275;143136;-68
2022/10/22 00:10:45;;;;;;;14.80;12.50;;;;;;;8.66;83.90;99172.11;421407;1281;142878;-67
2022/10/22 00:20:51;;;;;;;16.30;12.90;;;;;;;8.62;84.47;99174.95;419884;1274;142232;-67
2022/10/22 00:31:01;;;;;;;12.50;10.60;;;;;;;8.56;84.83;99176.36;420581;1274;142632;-66
2022/10/22 00:41:07;;;;;;;12.40;10.90;;;;;;;8.48;85.49;99167.21;421040;1275;142447;-67
2022/10/22 00:51:13;;;;;;;13.00;11.50;;;;;;;8.39;86.00;99171.78;419258;1274;146228;-67
2022/10/22 01:01:23;;;;;;;12.00;10.80;;;;;;;8.35;86.19;99181.45;422051;1274;143539;-67
2022/10/22 01:11:40;;;;;;;11.80;10.60;;;;;;;8.34;86.16;99165.09;420533;1275;144105;-67
2022/10/22 01:21:51;;;;;;;11.60;10.40;;;;;;;8.38;86.35;99149.02;420045;1279;142330;-67
2022/10/22 01:32:01;;;;;;;13.80;11.70;;;;;;;8.39;86.19;99153.32;420784;1275;144596;-68
2022/10/22 01:42:06;;;;;;;11.70;10.50;;;;;;;8.40;86.30;99147.99;420892;1275;192948;-66
2022/10/22 01:52:26;;;;;;;15.30;11.60;;;;;;;8.40;86.34;99128.96;423457;1278;142119;-67
2022/10/22 02:02:43;;;;;;;13.70;12.30;;;;;;;8.44;86.44;99122.35;422525;1272;143793;-70
2022/10/22 02:12:54;;;;;;;13.10;11.60;;;;;;;8.43;86.59;99117.68;422751;1279;141823;-67
2022/10/22 02:23:01;;;;;;;13.00;11.40;;;;;;;8.43;86.59;99110.38;422001;1275;143746;-67
2022/10/22 02:33:11;;;;;;;14.80;11.10;;;;;;;8.42;86.61;99092.05;421553;1275;141670;-67
2022/10/22 02:43:19;;;;;;;13.80;12.30;;;;;;;8.42;86.66;99089.63;420838;1275;142580;-67
2022/10/22 02:53:25;;;;;;;13.50;12.10;;;;;;;8.38;86.63;99132.63;420537;1279;141392;-68
2022/10/22 03:03:30;;;;;;;13.60;11.30;;;;;;;8.37;86.56;99150.79;420992;1275;141960;-68
2022/10/22 03:13:36;;;;;;;15.30;11.20;;;;;;;8.36;86.52;99132.42;421667;1279;142746;-67
2022/10/22 03:23:43;;;;;;;19.50;14.50;;;;;;;8.35;86.51;99109.41;420909;1279;141476;-69
2022/10/22 03:33:49;;;;;;;12.40;11.00;;;;;;;8.38;86.20;99098.80;421490;1278;142569;-67
2022/10/22 03:43:56;;;;;;;12.70;10.60;;;;;;;8.38;86.07;99082.75;422864;1279;142700;-67
2022/10/22 03:54:02;;;;;;;13.10;11.00;;;;;;;8.42;85.94;99081.98;421365;1279;142787;-68
2022/10/22 04:04:07;;;;;;;11.80;10.60;;;;;;;8.46;85.92;99095.33;420514;1275;141863;-67
2022/10/22 04:14:13;;;;;;;11.90;9.80;;;;;;;8.48;85.61;99097.69;421223;1280;143321;-67
2022/10/22 04:24:19;;;;;;;12.00;9.10;;;;;;;8.48;85.62;99100.82;422028;1278;214301;-66
2022/10/22 04:34:28;;;;;;;12.20;10.00;;;;;;;8.48;85.56;99097.14;421241;1278;141687;-67
2022/10/22 04:44:34;;;;;;;12.40;9.70;;;;;;;8.43;85.47;99090.97;420211;1279;141655;-67
2022/10/22 04:54:40;;;;;;;11.50;10.00;;;;;;;8.47;85.56;99087.23;421120;1278;142450;-68
2022/10/22 05:04:46;;;;;;;11.00;9.70;;;;;;;8.50;85.43;99079.42;420543;1281;142919;-67
2022/10/22 05:14:52;;;;;;;12.00;10.60;;;;;;;8.55;85.41;99083.30;420483;1280;143190;-67
2022/10/22 05:24:58;;;;;;;11.90;10.40;;;;;;;8.59;85.23;99076.40;420822;1280;142225;-67
2022/10/22 05:35:04;;;;;;;11.70;10.50;;;;;;;8.63;85.09;99076.52;420013;1278;143576;-67
2022/10/22 05:45:10;;;;;;;12.40;10.00;;;;;;;8.69;85.13;99088.15;421012;1279;142117;-67
2022/10/22 05:55:16;;;;;;;10.90;9.60;;;;;;;8.77;85.06;99094.98;422450;1281;143348;-68
2022/10/22 06:05:22;;;;;;;12.30;11.10;;;;;;;8.81;84.74;99105.91;420065;1278;142578;-68
2022/10/22 06:15:28;;;;;;;20.20;18.10;;;;;;;8.80;84.69;99125.29;420614;1283;142528;-68
2022/10/22 06:25:34;;;;;;;12.80;10.80;;;;;;;8.76;84.81;99163.31;422855;1281;142590;-67
2022/10/22 06:35:39;;;;;;;12.30;11.10;;;;;;;8.77;84.82;99160.98;420091;1278;187916;-67
2022/10/22 06:45:45;;;;;;;10.10;9.10;;;;;;;8.86;84.86;99136.98;420642;1279;141706;-67
2022/10/22 06:55:51;;;;;;;11.70;8.80;;;;;;;9.01;84.79;99136.88;420257;1278;143199;-68
2022/10/22 07:05:58;;;;;;;12.70;11.20;;;;;;;9.19;84.77;99155.33;421823;1278;142444;-67
2022/10/22 07:16:04;;;;;;;12.00;9.90;;;;;;;9.35;84.79;99171.20;421076;1278;142261;-67
2022/10/22 07:26:12;;;;;;;10.80;9.60;;;;;;;9.70;84.51;99183.27;420959;1278;143518;-66
2022/10/22 07:36:18;;;;;;;11.60;9.90;;;;;;;9.83;84.08;99184.69;420533;1278;143179;-67
2022/10/22 07:46:24;;;;;;;13.30;11.40;;;;;;;9.86;84.19;99175.53;420698;1279;143214;-67
2022/10/22 07:56:30;;;;;;;14.20;12.00;;;;;;;10.01;84.78;99155.32;420122;1278;143744;-66
2022/10/22 08:06:37;;;;;;;14.80;11.70;;;;;;;10.20;84.94;99175.88;421889;1281;142210;-67
2022/10/22 08:16:43;;;;;;;11.60;10.40;;;;;;;10.21;85.02;99187.14;433776;1281;143192;-66
2022/10/22 08:26:48;;;;;;;14.30;11.30;;;;;;;10.27;85.18;99196.89;425267;1278;143542;-67
2022/10/22 08:36:54;;;;;;;16.20;13.10;;;;;;;10.28;85.17;99204.74;424277;1283;143055;-66
2022/10/22 08:47:20;;;;;;;16.70;11.60;;;;;;;10.47;85.33;99206.92;422220;1281;142556;-66
2022/10/22 08:57:51;;;;;;;13.10;11.70;;;;;;;10.69;85.13;99191.73;436125;1281;188435;-66
2022/10/22 09:07:58;;;;;;;13.20;11.80;;;;;;;10.95;84.67;99188.89;429895;1282;142662;-67
2022/10/22 09:18:20;;;;;;;13.30;10.60;;;;;;;11.13;84.33;99192.13;427884;1281;142430;-68
2022/10/22 09:28:27;;;;;;;15.10;13.50;;;;;;;11.40;84.25;99203.48;421527;1275;144302;-68
2022/10/22 09:38:39;;;;;;;14.40;13.10;;;;;;;11.40;83.91;99220.34;424951;1274;143007;-68
2022/10/22 09:48:48;;;;;;;13.00;11.70;;;;;;;11.39;84.03;99216.41;422686;1282;142202;-66
2022/10/22 09:58:56;;;;;;;14.90;13.20;;;;;;;11.55;84.14;99206.27;425639;1279;141781;-66
2022/10/22 10:09:04;;;;;;;15.70;13.90;;;;;;;11.50;84.10;99230.48;421720;1280;141691;-68
2022/10/22 10:19:28;;;;;;;22.10;17.60;;;;;;;11.33;84.66;99240.13;420515;1275;141619;-67
2022/10/22 10:29:45;;;;;;;25.20;16.80;;;;;;;11.30;85.18;99230.90;420299;1273;142347;-68
2022/10/22 10:40:10;;;;;;;19.30;16.30;;;;;;;11.44;85.43;99215.13;421185;1274;143147;-68
2022/10/22 10:50:25;;;;;;;19.00;15.90;;;;;;;11.44;85.35;99219.36;421116;1281;140651;-67
2022/10/22 11:00:37;;;;;;;22.20;17.50;;;;;;;11.45;85.66;99211.77;421256;1281;196322;-67
2022/10/22 11:10:48;;;;;;;26.00;17.10;;;;;;;11.64;85.71;99196.83;420699;1275;142449;-69
2022/10/22 11:21:03;;;;;;;18.70;15.60;;;;;;;11.90;85.38;99190.90;419667;1282;142878;-67
2022/10/22 11:31:17;;;;;;;17.80;15.40;;;;;;;11.98;85.01;99192.05;421385;1281;143250;-68
2022/10/22 11:41:29;;;;;;;22.60;14.60;;;;;;;12.11;84.82;99193.01;420687;1281;142592;-68
2022/10/22 11:51:37;;;;;;;17.10;14.40;;;;;;;12.28;84.43;99191.55;420933;1274;144004;-68
2022/10/22 12:01:48;;;;;;;19.50;16.60;;;;;;;12.23;84.27;99186.45;421220;1282;143996;-66
2022/10/22 12:11:54;;;;;;;21.60;14.60;;;;;;;12.22;84.03;99191.11;420563;1281;142147;-67
2022/10/22 12:22:06;;;;;;;18.70;13.60;;;;;;;12.02;84.25;99203.52;421458;1280;144101;-67
2022/10/22 12:32:15;;;;;;;17.20;14.90;;;;;;;12.01;84.67;99194.42;424035;1274;141977;-67
2022/10/22 12:42:22;;;;;;;15.90;13.90;;;;;;;12.14;84.95;99178.23;421419;1280;203315;-66
2022/10/22 12:52:28;;;;;;;16.40;12.90;;;;;;;12.14;85.41;99177.02;420535;1275;142189;-67
2022/10/22 13:02:34;;;;;;;19.60;15.80;;;;;;;12.09;85.79;99180.88;421440;1278;168937;-66
2022/10/22 13:12:49;;;;;;;15.20;13.70;;;;;;;11.96;86.44;99179.54;420515;1281;143987;-67
2022/10/22 13:23:00;;;;;;;18.40;15.90;;;;;;;11.96;86.94;99178.70;420334;1274;142965;-66
2022/10/22 13:33:21;;;;;;;16.80;15.10;;;;;;;12.02;87.50;99160.88;419846;1281;142131;-67
2022/10/22 13:43:27;;;;;;;22.30;16.50;;;;;;;12.03;87.79;99162.54;420940;1281;143209;-66
2022/10/22 13:53:33;;;;;;;16.20;14.30;;;;;;;12.04;88.16;99157.55;419937;1274;146476;-67
2022/10/22 14:03:39;;;;;;;17.20;15.30;;;;;;;12.01;88.38;99155.15;421220;1282;143096;-69
2022/10/22 14:13:45;;;;;;;21.70;17.30;;;;;;;11.95;88.60;99152.63;420980;1275;142120;-68
2022/10/22 14:23:51;;;;;;;23.60;19.60;;;;;;;11.91;88.89;99157.11;420172;1281;143168;-66
2022/10/22 14:33:57;;;;;;;20.50;16.80;;;;;;;11.90;89.14;99158.42;420266;1275;141817;-68
2022/10/22 14:44:03;;;;;;;19.70;17.30;;;;;;;11.95;89.44;99164.23;420727;1274;145343;-67
2022/10/22 14:54:09;;;;;;;24.80;22.00;;;;;;;11.88;89.58;99165.41;419555;1275;143175;-68
2022/10/22 15:04:14;;;;;;;31.00;26.50;;;;;;;11.73;89.88;99164.05;421137;1282;141729;-67
2022/10/22 15:14:20;;;;;;;25.00;22.30;;;;;;;11.60;90.37;99165.05;420561;1275;141684;-69
2022/10/22 15:24:26;;;;;;;36.70;32.10;;;;;;;11.46;90.82;99171.36;422290;1274;141688;-67
2022/10/22 15:34:34;;;;;;;38.10;32.60;;;;;;;11.37;91.32;99177.66;421162;1282;143768;-67
2022/10/22 15:44:39;;;;;;;;;;;;;;;11.27;91.93;99184.98;420981;1275;142549;-67
2022/10/22 15:54:45;;;;;;;47.70;40.00;;;;;;;11.22;92.45;99188.02;422002;1282;128490;-67
2022/10/22 16:04:51;;;;;;;43.40;38.10;;;;;;;11.16;92.94;99194.89;420415;1274;143801;-66
2022/10/22 16:14:56;;;;;;;26.20;22.20;;;;;;;11.12;93.38;99205.14;420317;1275;142682;-66
2022/10/22 16:25:03;;;;;;;23.20;20.70;;;;;;;11.13;93.95;99212.98;421104;1274;142504;-67
2022/10/22 16:35:10;;;;;;;27.70;24.80;;;;;;;11.14;94.39;99216.39;420708;1275;145767;-67
2022/10/22 16:45:17;;;;;;;27.20;23.90;;;;;;;11.19;94.84;99227.78;419925;1272;141975;-67
2022/10/22 16:55:23;;;;;;;22.80;20.30;;;;;;;11.22;95.17;99238.09;421177;1278;142254;-67
2022/10/22 17:05:30;;;;;;;19.40;16.30;;;;;;;11.26;95.44;99245.19;419478;1275;142645;-65
2022/10/22 17:15:36;;;;;;;18.10;16.20;;;;;;;11.28;95.65;99252.53;420710;1274;141841;-66
2022/10/22 17:25:44;;;;;;;17.50;15.90;;;;;;;11.26;95.87;99253.05;420427;1281;142664;-67
2022/10/22 17:35:51;;;;;;;16.40;14.30;;;;;;;11.28;96.23;99252.21;420081;1275;144463;-67
2022/10/22 17:46:06;;;;;;;19.50;17.50;;;;;;;11.30;96.52;99258.90;420136;1275;142373;-66
2022/10/22 17:56:14;;;;;;;19.90;16.40;;;;;;;11.34;96.76;99260.69;421442;1275;143276;-66
2022/10/22 18:06:20;;;;;;;19.80;17.70;;;;;;;11.35;96.91;99262.38;419908;1274;210336;-66
2022/10/22 18:16:28;;;;;;;21.90;18.80;;;;;;;11.39;97.09;99274.72;420277;1275;142507;-66
2022/10/22 18:26:34;;;;;;;23.40;20.60;;;;;;;11.44;97.27;99274.05;419731;1275;143117;-67
2022/10/22 18:36:41;;;;;;;23.10;20.70;;;;;;;11.46;97.36;99285.25;420739;1274;142524;-67
2022/10/22 18:46:47;;;;;;;24.60;19.90;;;;;;;11.46;97.46;99289.14;420091;1272;143727;-67
2022/10/22 18:56:56;;;;;;;23.00;20.20;;;;;;;11.48;97.60;99296.89;419695;1275;142862;-66
2022/10/22 19:07:07;;;;;;;26.30;22.40;;;;;;;11.46;97.68;99311.51;420409;1275;142134;-67
2022/10/22 19:17:14;;;;;;;22.00;19.50;;;;;;;11.44;97.62;99323.79;420865;1275;143104;-66
2022/10/22 19:27:20;;;;;;;25.40;21.10;;;;;;;11.43;97.62;99329.11;419882;1275;198093;-67
2022/10/22 19:37:26;;;;;;;26.00;20.90;;;;;;;11.45;97.68;99347.04;420203;1275;142435;-67
2022/10/22 19:47:32;;;;;;;27.90;22.20;;;;;;;11.45;97.70;99361.73;419889;1274;143796;-67
2022/10/22 19:57:38;;;;;;;23.20;20.20;;;;;;;11.48;97.80;99368.91;421570;1282;141725;-67
2022/10/22 20:07:45;;;;;;;24.40;19.90;;;;;;;11.51;97.91;99377.50;420081;1282;144231;-67
2022/10/22 20:17:51;;;;;;;23.40;19.50;;;;;;;11.50;98.13;99388.23;422105;1279;142662;-66
2022/10/22 20:27:56;;;;;;;25.00;19.70;;;;;;;11.53;98.24;99402.94;421117;1274;147400;-67
2022/10/22 20:38:02;;;;;;;33.10;21.30;;;;;;;11.53;98.64;99409.23;420184;1275;142139;-66
2022/10/22 20:48:08;;;;;;;27.30;19.40;;;;;;;11.53;98.92;99413.25;420839;1275;142467;-66
2022/10/22 20:58:16;;;;;;;29.40;20.50;;;;;;;11.53;99.24;99416.08;419950;1274;142210;-67
2022/10/22 21:08:22;;;;;;;28.70;19.30;;;;;;;11.54;99.53;99422.30;420204;1272;146995;-67
2022/10/22 21:18:28;;;;;;;27.10;20.80;;;;;;;11.57;99.67;99428.58;420990;1274;141450;-67
2022/10/22 21:28:36;;;;;;;31.90;21.80;;;;;;;11.59;99.79;99438.27;421078;1281;142276;-67
2022/10/22 21:38:42;;;;;;;31.00;21.70;;;;;;;11.63;99.99;99438.86;419989;1287;143048;-67
2022/10/22 21:48:52;;;;;;;28.70;19.40;;;;;;;11.65;100.00;99441.64;420743;1275;141388;-68
2022/10/22 21:58:58;;;;;;;30.20;20.80;;;;;;;11.70;100.00;99449.06;422101;1282;144157;-67
2022/10/22 22:09:05;;;;;;;28.00;21.10;;;;;;;11.73;100.00;99454.99;419894;1275;143085;-66
2022/10/22 22:19:12;;;;;;;30.90;23.30;;;;;;;11.76;100.00;99459.14;420614;1281;144324;-66
2022/10/22 22:29:18;;;;;;;36.20;24.60;;;;;;;11.79;100.00;99464.41;421246;1278;142798;-67
2022/10/22 22:39:25;;;;;;;38.90;26.30;;;;;;;11.82;100.00;99471.16;424938;1274;197952;-67
2022/10/22 22:49:31;;;;;;;41.40;28.20;;;;;;;11.86;100.00;99476.86;420455;1282;143806;-67
2022/10/22 22:59:36;;;;;;;46.60;31.70;;;;;;;11.89;100.00;99476.14;419491;1280;143605;-66
2022/10/22 23:09:43;;;;;;;45.80;31.20;;;;;;;11.92;100.00;99477.34;420533;1275;142688;-66
2022/10/22 23:19:49;;;;;;;42.50;30.00;;;;;;;11.94;100.00;99486.30;420431;1281;141811;-65
2022/10/22 23:29:54;;;;;;;40.00;27.50;;;;;;;11.94;100.00;99490.66;420272;1281;144556;-66
2022/10/22 23:40:00;;;;;;;42.60;30.70;;;;;;;11.92;100.00;99503.64;420550;1281;147239;-68
2022/10/22 23:50:07;;;;;;;42.50;33.30;;;;;;;11.90;100.00;99514.66;421493;1272;142597;-67
